createdAt,value
2023-01-22T00:00:06.701Z,100526.00
2023-01-22T00:02:36.173Z,100526.81
2023-01-22T00:05:04.190Z,100519.94
2023-01-22T00:07:30.752Z,100522.19
2023-01-22T00:09:57.326Z,100514.56
2023-01-22T00:12:23.893Z,100511.72
2023-01-22T00:14:50.876Z,100521.38
2023-01-22T00:17:17.624Z,100523.00
2023-01-22T00:19:44.076Z,100522.59
2023-01-22T00:22:11.559Z,100511.53
2023-01-22T00:24:39.967Z,100524.50
2023-01-22T00:27:06.880Z,100516.69
2023-01-22T00:29:33.273Z,100515.69
2023-01-22T00:31:59.837Z,100513.00
2023-01-22T00:34:26.226Z,100506.78
2023-01-22T00:36:54.053Z,100515.75
2023-01-22T00:39:21.643Z,100513.41
2023-01-22T00:41:49.654Z,100506.03
2023-01-22T00:44:16.151Z,100505.41
2023-01-22T00:46:42.671Z,100509.75
2023-01-22T00:49:09.114Z,100501.81
2023-01-22T00:51:36.700Z,100503.50
2023-01-22T00:54:03.257Z,100493.50
2023-01-22T00:56:30.042Z,100492.84
2023-01-22T00:58:58.550Z,100486.91
2023-01-22T01:01:25.341Z,100484.13
2023-01-22T01:03:51.921Z,100483.59
2023-01-22T01:06:21.253Z,100492.34
2023-01-22T01:08:48.725Z,100487.50
2023-01-22T01:11:21.943Z,100483.28
2023-01-22T01:13:49.709Z,100477.88
2023-01-22T01:16:22.185Z,100489.41
2023-01-22T01:18:49.009Z,100482.44
2023-01-22T01:21:17.944Z,100474.53
2023-01-22T01:23:44.848Z,100479.06
2023-01-22T01:26:13.970Z,100473.59
2023-01-22T01:28:41.574Z,100477.31
2023-01-22T01:31:11.977Z,100473.66
2023-01-22T01:33:38.606Z,100470.94
2023-01-22T01:36:08.249Z,100468.28
2023-01-22T01:38:34.701Z,100481.53
2023-01-22T01:41:01.390Z,100470.03
2023-01-22T01:43:28.222Z,100469.34
2023-01-22T01:45:56.791Z,100470.91
2023-01-22T01:48:35.258Z,100478.16
2023-01-22T01:51:33.621Z,100471.97
2023-01-22T01:54:02.437Z,100484.38
2023-01-22T01:56:35.352Z,100476.38
2023-01-22T01:59:09.030Z,100474.03
2023-01-22T02:01:36.511Z,100472.78
2023-01-22T02:04:03.423Z,100470.13
2023-01-22T02:06:29.847Z,100476.41
2023-01-22T02:08:57.696Z,100478.09
2023-01-22T02:11:25.329Z,100479.09
2023-01-22T02:13:57.760Z,100471.00
2023-01-22T02:16:24.196Z,100471.88
2023-01-22T02:18:50.937Z,100469.41
2023-01-22T02:21:46.909Z,100476.09
2023-01-22T02:24:17.267Z,100474.53
2023-01-22T02:26:45.456Z,100469.38
2023-01-22T02:29:13.922Z,100477.16
2023-01-22T02:31:42.209Z,100472.03
2023-01-22T02:34:09.864Z,100476.22
2023-01-22T02:36:38.420Z,100472.19
2023-01-22T02:39:05.256Z,100474.81
2023-01-22T02:41:32.123Z,100469.53
2023-01-22T02:43:58.804Z,100470.31
2023-01-22T02:46:25.924Z,100463.41
2023-01-22T02:48:52.468Z,100453.56
2023-01-22T02:51:19.003Z,100456.91
2023-01-22T02:53:45.460Z,100449.63
2023-01-22T02:56:12.197Z,100452.06
2023-01-22T02:58:38.687Z,100446.09
2023-01-22T03:01:21.445Z,100452.41
2023-01-22T03:03:51.939Z,100452.69
2023-01-22T03:06:22.364Z,100444.06
2023-01-22T03:08:59.503Z,100452.59
2023-01-22T03:11:28.351Z,100457.25
2023-01-22T03:14:15.007Z,100451.94
2023-01-22T03:17:01.630Z,100442.28
2023-01-22T03:19:47.000Z,100452.00
2023-01-22T03:22:15.568Z,100441.28
2023-01-22T03:24:42.908Z,100432.59
2023-01-22T03:27:09.481Z,100431.63
2023-01-22T03:29:38.289Z,100428.81
2023-01-22T03:32:06.052Z,100432.31
2023-01-22T03:34:33.896Z,100431.25
2023-01-22T03:37:00.407Z,100429.13
2023-01-22T03:39:27.201Z,100428.88
2023-01-22T03:41:53.945Z,100434.97
2023-01-22T03:44:20.432Z,100429.13
2023-01-22T03:46:46.960Z,100434.56
2023-01-22T03:49:14.203Z,100437.94
2023-01-22T03:51:43.039Z,100441.59
2023-01-22T03:54:14.198Z,100443.41
2023-01-22T03:56:41.977Z,100444.06
2023-01-22T03:59:09.849Z,100442.31
2023-01-22T04:01:36.977Z,100436.97
2023-01-22T04:04:03.591Z,100435.19
2023-01-22T04:06:30.575Z,100437.03
2023-01-22T04:08:57.104Z,100437.97
2023-01-22T04:11:24.112Z,100431.00
2023-01-22T04:13:50.540Z,100434.25
2023-01-22T04:16:17.191Z,100429.34
2023-01-22T04:18:44.071Z,100423.78
2023-01-22T04:21:10.717Z,100431.09
2023-01-22T04:23:37.203Z,100426.41
2023-01-22T04:26:03.892Z,100432.81
2023-01-22T04:28:30.315Z,100439.50
2023-01-22T04:30:57.166Z,100437.00
2023-01-22T04:33:23.627Z,100444.03
2023-01-22T04:35:52.686Z,100430.88
2023-01-22T04:38:19.474Z,100435.50
2023-01-22T04:40:46.091Z,100434.31
2023-01-22T04:43:12.579Z,100429.66
2023-01-22T04:45:39.287Z,100433.38
2023-01-22T04:48:06.186Z,100429.13
2023-01-22T04:50:33.616Z,100433.56
2023-01-22T04:53:01.154Z,100439.59
2023-01-22T04:55:28.902Z,100441.13
2023-01-22T04:57:57.337Z,100441.19
2023-01-22T05:00:25.058Z,100443.03
2023-01-22T05:02:56.342Z,100443.03
2023-01-22T05:05:22.965Z,100440.88
2023-01-22T05:07:49.509Z,100443.81
2023-01-22T05:10:16.784Z,100436.78
2023-01-22T05:12:43.516Z,100433.94
2023-01-22T05:15:23.220Z,100429.66
2023-01-22T05:17:50.772Z,100425.22
2023-01-22T05:20:17.960Z,100426.97
2023-01-22T05:22:45.130Z,100432.25
2023-01-22T05:25:12.147Z,100442.63
2023-01-22T05:27:38.675Z,100438.31
2023-01-22T05:30:06.235Z,100448.03
2023-01-22T05:32:32.808Z,100445.00
2023-01-22T05:34:59.404Z,100442.34
2023-01-22T05:37:26.030Z,100440.56
2023-01-22T05:39:52.632Z,100439.78
2023-01-22T05:42:19.187Z,100446.09
2023-01-22T05:44:45.918Z,100434.66
2023-01-22T05:47:13.400Z,100431.69
2023-01-22T05:49:40.371Z,100435.22
2023-01-22T05:52:10.446Z,100442.34
2023-01-22T05:54:39.200Z,100439.84
2023-01-22T05:57:06.017Z,100446.66
2023-01-22T05:59:32.577Z,100444.78
2023-01-22T06:01:59.044Z,100447.22
2023-01-22T06:04:25.618Z,100439.44
2023-01-22T06:06:53.162Z,100443.88
2023-01-22T06:09:19.655Z,100445.63
2023-01-22T06:11:46.193Z,100441.38
2023-01-22T06:14:12.603Z,100429.84
2023-01-22T06:16:39.313Z,100423.81
2023-01-22T06:19:06.429Z,100435.31
2023-01-22T06:21:32.850Z,100431.84
2023-01-22T06:23:59.297Z,100430.31
2023-01-22T06:26:26.819Z,100427.25
2023-01-22T06:28:55.094Z,100432.63
2023-01-22T06:31:22.784Z,100423.03
2023-01-22T06:33:49.239Z,100434.31
2023-01-22T06:36:15.760Z,100435.31
2023-01-22T06:38:42.175Z,100442.91
2023-01-22T06:41:09.678Z,100439.34
2023-01-22T06:43:37.469Z,100444.59
2023-01-22T06:46:04.673Z,100442.78
2023-01-22T06:48:31.127Z,100445.75
2023-01-22T06:50:58.913Z,100453.72
2023-01-22T06:53:25.920Z,100457.16
2023-01-22T06:55:52.735Z,100457.34
2023-01-22T06:58:19.172Z,100468.59
2023-01-22T07:00:45.803Z,100465.72
2023-01-22T07:03:13.358Z,100464.09
2023-01-22T07:05:39.818Z,100477.41
2023-01-22T07:08:07.425Z,100474.06
2023-01-22T07:10:33.920Z,100474.91
2023-01-22T07:13:01.478Z,100483.56
2023-01-22T07:15:28.001Z,100489.41
2023-01-22T07:17:54.880Z,100492.22
2023-01-22T07:20:23.191Z,100500.75
2023-01-22T07:22:51.419Z,100491.13
2023-01-22T07:25:19.430Z,100499.97
2023-01-22T07:27:46.074Z,100504.28
2023-01-22T07:30:13.174Z,100493.75
2023-01-22T07:32:41.202Z,100495.41
2023-01-22T07:35:08.264Z,100496.59
2023-01-22T07:37:36.244Z,100510.00
2023-01-22T07:40:05.817Z,100498.44
2023-01-22T07:42:32.223Z,100503.72
2023-01-22T07:44:58.728Z,100500.34
2023-01-22T07:47:25.188Z,100504.66
2023-01-22T07:49:51.836Z,100502.91
2023-01-22T07:52:18.258Z,100509.88
2023-01-22T07:54:44.854Z,100503.75
2023-01-22T07:57:15.300Z,100520.03
2023-01-22T07:59:42.057Z,100512.97
2023-01-22T08:02:15.308Z,100507.81
2023-01-22T08:04:42.450Z,100519.94
2023-01-22T08:07:19.500Z,100513.81
2023-01-22T08:09:46.000Z,100512.00
2023-01-22T08:12:12.553Z,100526.75
2023-01-22T08:14:39.013Z,100526.53
2023-01-22T08:17:06.517Z,100529.25
2023-01-22T08:19:32.930Z,100531.06
2023-01-22T08:21:59.388Z,100540.78
2023-01-22T08:24:25.915Z,100537.97
2023-01-22T08:26:52.363Z,100538.66
2023-01-22T08:29:19.034Z,100546.41
2023-01-22T08:31:45.554Z,100543.13
2023-01-22T08:34:12.221Z,100545.81
2023-01-22T08:36:38.630Z,100549.38
2023-01-22T08:39:05.200Z,100549.25
2023-01-22T08:41:31.594Z,100546.56
2023-01-22T08:43:58.084Z,100552.38
2023-01-22T08:46:24.745Z,100549.81
2023-01-22T08:48:51.657Z,100546.94
2023-01-22T08:51:18.226Z,100551.41
2023-01-22T08:53:44.759Z,100550.34
2023-01-22T08:56:11.362Z,100547.56
2023-01-22T08:58:37.825Z,100542.09
2023-01-22T09:01:04.514Z,100536.59
2023-01-22T09:03:31.058Z,100542.16
2023-01-22T09:05:58.884Z,100549.75
2023-01-22T09:08:25.422Z,100548.91
2023-01-22T09:10:51.978Z,100548.38
2023-01-22T09:13:18.578Z,100544.44
2023-01-22T09:15:45.101Z,100550.84
2023-01-22T09:18:11.462Z,100553.31
2023-01-22T09:20:38.064Z,100554.03
2023-01-22T09:23:04.557Z,100545.91
2023-01-22T09:25:32.030Z,100553.69
2023-01-22T09:28:04.929Z,100543.31
2023-01-22T09:30:32.102Z,100548.19
2023-01-22T09:32:58.692Z,100549.34
2023-01-22T09:35:26.759Z,100546.75
2023-01-22T09:37:53.841Z,100551.00
2023-01-22T09:40:26.207Z,100552.66
2023-01-22T09:42:59.663Z,100552.94
2023-01-22T09:45:26.933Z,100551.53
2023-01-22T09:48:00.587Z,100547.38
2023-01-22T09:50:30.219Z,100551.63
2023-01-22T09:53:02.070Z,100547.84
2023-01-22T09:55:33.521Z,100551.53
2023-01-22T09:58:02.873Z,100554.78
2023-01-22T10:00:53.280Z,100553.56
2023-01-22T10:03:36.820Z,100555.31
2023-01-22T10:06:10.420Z,100559.97
2023-01-22T10:09:12.408Z,100561.88
2023-01-22T10:11:39.156Z,100559.84
2023-01-22T10:14:09.187Z,100558.81
2023-01-22T10:16:37.130Z,100554.38
2023-01-22T10:19:37.858Z,100554.16
2023-01-22T10:22:17.783Z,100559.22
2023-01-22T10:24:44.212Z,100560.22
2023-01-22T10:27:16.907Z,100565.16
2023-01-22T10:29:46.194Z,100564.56
2023-01-22T10:32:23.615Z,100562.19
2023-01-22T10:35:16.211Z,100558.47
2023-01-22T10:37:52.541Z,100561.81
2023-01-22T10:40:37.951Z,100557.50
2023-01-22T10:43:06.527Z,100553.72
2023-01-22T10:45:33.162Z,100543.84
2023-01-22T10:48:06.598Z,100544.56
2023-01-22T10:50:33.085Z,100544.56
2023-01-22T10:52:59.602Z,100546.16
2023-01-22T10:55:32.123Z,100546.22
2023-01-22T10:58:02.830Z,100536.56
2023-01-22T11:00:50.855Z,100539.31
2023-01-22T11:03:24.249Z,100537.56
2023-01-22T11:06:02.481Z,100531.94
2023-01-22T11:08:40.383Z,100540.75
2023-01-22T11:11:11.002Z,100532.03
2023-01-22T11:13:51.345Z,100536.34
2023-01-22T11:16:21.077Z,100539.81
2023-01-22T11:19:36.505Z,100548.09
2023-01-22T11:22:14.697Z,100532.47
2023-01-22T11:24:47.216Z,100534.31
2023-01-22T11:27:32.732Z,100531.50
2023-01-22T11:30:07.347Z,100532.56
2023-01-22T11:33:13.386Z,100536.13
2023-01-22T11:35:58.873Z,100549.69
2023-01-22T11:38:25.151Z,100547.13
2023-01-22T11:41:14.322Z,100545.44
2023-01-22T11:43:57.934Z,100529.34
2023-01-22T11:46:24.367Z,100534.31
2023-01-22T11:49:02.939Z,100535.72
2023-01-22T11:51:36.186Z,100533.19
2023-01-22T11:54:05.696Z,100533.22
2023-01-22T11:56:54.011Z,100532.38
2023-01-22T11:59:45.683Z,100534.31
2023-01-22T12:02:20.945Z,100536.03
2023-01-22T12:05:01.137Z,100539.28
2023-01-22T12:07:46.046Z,100531.03
2023-01-22T12:10:21.603Z,100533.63
2023-01-22T12:13:10.097Z,100529.22
2023-01-22T12:15:48.212Z,100518.47
2023-01-22T12:18:20.814Z,100527.91
2023-01-22T12:21:06.895Z,100533.69
2023-01-22T12:23:43.857Z,100530.28
2023-01-22T12:26:17.435Z,100532.94
2023-01-22T12:29:09.700Z,100534.53
2023-01-22T12:31:43.254Z,100545.16
2023-01-22T12:34:27.752Z,100541.47
2023-01-22T12:36:55.591Z,100549.13
2023-01-22T12:39:41.665Z,100550.59
2023-01-22T12:42:27.564Z,100543.75
2023-01-22T12:45:16.353Z,100543.84
2023-01-22T12:47:54.674Z,100539.97
2023-01-22T12:50:23.888Z,100537.56
2023-01-22T12:53:05.700Z,100531.19
2023-01-22T12:55:44.216Z,100533.53
2023-01-22T12:58:25.101Z,100534.38
2023-01-22T13:01:24.068Z,100530.81
2023-01-22T13:03:59.905Z,100533.31
2023-01-22T13:06:35.734Z,100535.84
2023-01-22T13:09:05.180Z,100538.50
2023-01-22T13:11:35.813Z,100543.66
2023-01-22T13:14:22.645Z,100545.94
2023-01-22T13:17:24.567Z,100538.38
2023-01-22T13:19:52.787Z,100540.31
2023-01-22T13:22:22.664Z,100543.09
2023-01-22T13:24:57.831Z,100547.34
2023-01-22T13:27:26.712Z,100541.56
2023-01-22T13:30:06.725Z,100536.97
2023-01-22T13:32:33.256Z,100541.94
2023-01-22T13:35:04.904Z,100545.78
2023-01-22T13:37:31.696Z,100537.47
2023-01-22T13:39:58.254Z,100540.91
2023-01-22T13:42:27.232Z,100534.13
2023-01-22T13:44:56.349Z,100546.25
2023-01-22T13:47:35.371Z,100547.09
2023-01-22T13:50:02.563Z,100546.44
2023-01-22T13:52:29.574Z,100548.19
2023-01-22T13:55:16.420Z,100555.13
2023-01-22T13:57:47.938Z,100555.88
2023-01-22T14:00:23.629Z,100551.44
2023-01-22T14:02:50.471Z,100556.09
2023-01-22T14:05:25.543Z,100553.53
2023-01-22T14:08:02.800Z,100556.72
2023-01-22T14:10:29.331Z,100562.00
2023-01-22T14:13:11.024Z,100559.66
2023-01-22T14:15:38.935Z,100563.44
2023-01-22T14:18:14.112Z,100567.47
2023-01-22T14:20:41.829Z,100567.88
2023-01-22T14:23:08.991Z,100577.53
2023-01-22T14:25:40.797Z,100574.84
2023-01-22T14:28:07.503Z,100582.00
2023-01-22T14:30:34.219Z,100579.31
2023-01-22T14:33:00.913Z,100579.44
2023-01-22T14:35:27.790Z,100586.22
2023-01-22T14:37:55.389Z,100584.47
2023-01-22T14:40:24.122Z,100591.88
2023-01-22T14:42:51.543Z,100591.88
2023-01-22T14:45:19.649Z,100595.22
2023-01-22T14:47:51.742Z,100594.25
2023-01-22T14:50:19.306Z,100595.88
2023-01-22T14:52:46.568Z,100604.09
2023-01-22T14:55:13.372Z,100607.59
2023-01-22T14:57:40.280Z,100607.69
2023-01-22T15:00:07.861Z,100609.63
2023-01-22T15:02:37.426Z,100622.16
2023-01-22T15:05:04.266Z,100607.28
2023-01-22T15:07:30.741Z,100614.50
2023-01-22T15:09:57.119Z,100618.81
2023-01-22T15:12:23.768Z,100623.28
2023-01-22T15:14:50.150Z,100619.88
2023-01-22T15:17:16.825Z,100629.50
2023-01-22T15:19:43.297Z,100627.66
2023-01-22T15:22:10.178Z,100625.22
2023-01-22T15:24:39.242Z,100626.16
2023-01-22T15:27:06.432Z,100628.66
2023-01-22T15:29:33.133Z,100628.84
2023-01-22T15:31:59.793Z,100633.78
2023-01-22T15:34:26.191Z,100636.59
2023-01-22T15:36:53.023Z,100637.69
2023-01-22T15:39:19.544Z,100640.72
2023-01-22T15:41:46.181Z,100637.03
2023-01-22T15:44:14.027Z,100639.75
2023-01-22T15:46:42.233Z,100634.66
2023-01-22T15:49:10.467Z,100647.09
2023-01-22T15:51:36.945Z,100649.13
2023-01-22T15:54:05.240Z,100645.88
2023-01-22T15:56:35.201Z,100651.00
2023-01-22T15:59:02.164Z,100650.66
2023-01-22T16:01:28.925Z,100647.31
2023-01-22T16:03:55.840Z,100652.69
2023-01-22T16:06:27.674Z,100648.56
2023-01-22T16:08:57.581Z,100652.75
2023-01-22T16:11:25.104Z,100650.25
2023-01-22T16:13:51.578Z,100647.81
2023-01-22T16:16:37.796Z,100655.75
2023-01-22T16:19:07.364Z,100651.56
2023-01-22T16:21:34.948Z,100659.75
2023-01-22T16:24:02.467Z,100661.28
2023-01-22T16:26:32.598Z,100668.19
2023-01-22T16:29:01.811Z,100666.38
2023-01-22T16:31:30.970Z,100672.41
2023-01-22T16:34:00.343Z,100675.16
2023-01-22T16:36:29.377Z,100675.16
2023-01-22T16:38:56.115Z,100677.81
2023-01-22T16:41:30.423Z,100673.59
2023-01-22T16:44:08.316Z,100674.53
2023-01-22T16:46:37.270Z,100669.00
2023-01-22T16:49:06.938Z,100676.31
2023-01-22T16:51:37.554Z,100674.25
2023-01-22T16:54:05.677Z,100674.34
2023-01-22T16:56:32.855Z,100682.06
2023-01-22T16:59:00.060Z,100683.25
2023-01-22T17:01:28.944Z,100682.53
2023-01-22T17:03:55.532Z,100687.13
2023-01-22T17:06:32.653Z,100685.41
2023-01-22T17:08:59.957Z,100683.63
2023-01-22T17:11:26.783Z,100688.19
2023-01-22T17:13:53.675Z,100683.75
2023-01-22T17:16:20.219Z,100680.31
2023-01-22T17:18:46.790Z,100688.13
2023-01-22T17:21:15.813Z,100684.63
2023-01-22T17:23:42.393Z,100691.53
2023-01-22T17:26:14.473Z,100696.06
2023-01-22T17:28:41.870Z,100697.59
2023-01-22T17:31:11.591Z,100686.47
2023-01-22T17:33:39.157Z,100681.22
2023-01-22T17:36:06.387Z,100689.16
2023-01-22T17:38:37.581Z,100689.16
2023-01-22T17:41:12.158Z,100691.94
2023-01-22T17:43:38.856Z,100690.97
2023-01-22T17:46:10.855Z,100689.25
2023-01-22T17:48:37.752Z,100689.25
2023-01-22T17:51:06.277Z,100688.41
2023-01-22T17:53:35.620Z,100699.91
2023-01-22T17:56:09.372Z,100703.44
2023-01-22T17:58:37.563Z,100699.06
2023-01-22T18:01:06.853Z,100699.06
2023-01-22T18:03:34.249Z,100703.44
2023-01-22T18:06:02.342Z,100710.50
2023-01-22T18:08:30.430Z,100712.31
2023-01-22T18:10:59.072Z,100718.31
2023-01-22T18:13:26.054Z,100717.50
2023-01-22T18:15:52.908Z,100723.72
2023-01-22T18:18:19.486Z,100722.09
2023-01-22T18:20:47.041Z,100727.31
2023-01-22T18:23:14.909Z,100723.81
2023-01-22T18:25:46.666Z,100729.88
2023-01-22T18:28:15.071Z,100730.75
2023-01-22T18:30:41.841Z,100730.78
2023-01-22T18:33:10.259Z,100728.31
2023-01-22T18:35:37.223Z,100733.72
2023-01-22T18:38:03.620Z,100739.09
2023-01-22T18:40:31.323Z,100747.91
2023-01-22T18:42:58.024Z,100760.38
2023-01-22T18:45:25.187Z,100768.41
2023-01-22T18:47:54.812Z,100769.41
2023-01-22T18:50:22.271Z,100760.66
2023-01-22T18:52:49.340Z,100765.88
2023-01-22T18:55:16.917Z,100764.00
2023-01-22T18:57:46.280Z,100763.03
2023-01-22T19:00:15.001Z,100760.38
2023-01-22T19:02:41.623Z,100761.22
2023-01-22T19:05:08.388Z,100768.22
2023-01-22T19:07:38.061Z,100771.72
2023-01-22T19:10:06.395Z,100775.25
2023-01-22T19:12:33.074Z,100776.97
2023-01-22T19:14:59.575Z,100772.53
2023-01-22T19:17:26.576Z,100771.59
2023-01-22T19:19:52.977Z,100777.72
2023-01-22T19:22:19.421Z,100767.91
2023-01-22T19:24:45.938Z,100771.53
2023-01-22T19:27:12.536Z,100776.00
2023-01-22T19:29:39.619Z,100770.44
2023-01-22T19:32:06.465Z,100771.66
2023-01-22T19:34:33.134Z,100772.50
2023-01-22T19:37:02.183Z,100786.81
2023-01-22T19:39:29.357Z,100784.97
2023-01-22T19:41:56.600Z,100785.94
2023-01-22T19:44:23.157Z,100783.34
2023-01-22T19:46:49.776Z,100787.72
2023-01-22T19:49:16.353Z,100787.84
2023-01-22T19:51:42.964Z,100790.44
2023-01-22T19:54:10.198Z,100788.72
2023-01-22T19:56:38.996Z,100802.72
2023-01-22T19:59:08.053Z,100801.88
2023-01-22T20:01:36.688Z,100800.03
2023-01-22T20:04:04.288Z,100803.56
2023-01-22T20:06:30.863Z,100801.84
2023-01-22T20:08:57.396Z,100808.84
2023-01-22T20:11:25.301Z,100811.66
2023-01-22T20:13:52.479Z,100827.59
2023-01-22T20:16:25.680Z,100833.44
2023-01-22T20:18:54.083Z,100838.41
2023-01-22T20:21:22.115Z,100832.72
2023-01-22T20:23:50.014Z,100839.72
2023-01-22T20:26:18.204Z,100842.50
2023-01-22T20:28:45.455Z,100840.03
2023-01-22T20:31:14.732Z,100842.69
2023-01-22T20:33:41.307Z,100839.19
2023-01-22T20:36:09.619Z,100845.13
2023-01-22T20:38:36.892Z,100841.72
2023-01-22T20:41:09.309Z,100850.38
2023-01-22T20:43:39.088Z,100853.03
2023-01-22T20:46:08.488Z,100845.09
2023-01-22T20:48:35.930Z,100841.50
2023-01-22T20:51:03.459Z,100839.66
2023-01-22T20:53:32.026Z,100844.06
2023-01-22T20:56:01.854Z,100853.66
2023-01-22T20:58:29.592Z,100851.94
2023-01-22T21:01:02.115Z,100857.22
2023-01-22T21:03:28.744Z,100857.22
2023-01-22T21:05:55.275Z,100856.44
2023-01-22T21:08:21.801Z,100852.09
2023-01-22T21:11:03.484Z,100861.03
2023-01-22T21:13:30.109Z,100857.44
2023-01-22T21:15:57.073Z,100856.59
2023-01-22T21:18:24.132Z,100857.44
2023-01-22T21:20:50.568Z,100853.06
2023-01-22T21:23:17.357Z,100846.88
2023-01-22T21:25:43.782Z,100841.66
2023-01-22T21:28:10.876Z,100840.66
2023-01-22T21:30:37.675Z,100847.63
2023-01-22T21:33:04.366Z,100845.88
2023-01-22T21:35:30.831Z,100846.72
2023-01-22T21:37:57.394Z,100842.31
2023-01-22T21:40:24.009Z,100845.00
2023-01-22T21:43:11.378Z,100838.84
2023-01-22T21:46:01.630Z,100846.84
2023-01-22T21:48:29.362Z,100849.50
2023-01-22T21:50:55.989Z,100858.16
2023-01-22T21:53:22.473Z,100843.09
2023-01-22T21:55:53.408Z,100846.66
2023-01-22T21:58:20.779Z,100856.47
2023-01-22T22:00:47.312Z,100847.84
2023-01-22T22:03:13.886Z,100841.72
2023-01-22T22:05:40.643Z,100847.84
2023-01-22T22:08:07.132Z,100837.25
2023-01-22T22:10:33.733Z,100841.56
2023-01-22T22:13:00.185Z,100840.75
2023-01-22T22:15:26.722Z,100845.00
2023-01-22T22:17:53.146Z,100836.25
2023-01-22T22:20:20.057Z,100849.50
2023-01-22T22:22:46.851Z,100849.50
2023-01-22T22:25:13.463Z,100841.56
2023-01-22T22:27:39.856Z,100843.34
2023-01-22T22:30:07.090Z,100846.88
2023-01-22T22:32:33.508Z,100853.91
2023-01-22T22:34:59.921Z,100851.28
2023-01-22T22:37:26.595Z,100859.19
2023-01-22T22:39:53.037Z,100853.19
2023-01-22T22:42:19.561Z,100852.16
2023-01-22T22:44:45.982Z,100855.81
2023-01-22T22:47:12.604Z,100859.34
2023-01-22T22:49:39.070Z,100854.06
2023-01-22T22:52:05.898Z,100864.66
2023-01-22T22:54:32.301Z,100865.56
2023-01-22T22:56:58.876Z,100873.47
2023-01-22T22:59:25.385Z,100867.19
2023-01-22T23:01:52.075Z,100867.94
2023-01-22T23:04:18.578Z,100873.31
2023-01-22T23:06:46.238Z,100871.69
2023-01-22T23:09:15.734Z,100869.91
2023-01-22T23:11:43.616Z,100871.50
2023-01-22T23:14:10.865Z,100872.47
2023-01-22T23:16:42.860Z,100884.72
2023-01-22T23:19:16.766Z,100880.31
2023-01-22T23:21:44.258Z,100884.72
2023-01-22T23:24:13.042Z,100881.19
2023-01-22T23:26:40.791Z,100873.16
2023-01-22T23:29:09.883Z,100884.66
2023-01-22T23:31:38.274Z,100885.59
2023-01-22T23:34:12.149Z,100886.50
2023-01-22T23:36:40.874Z,100894.44
2023-01-22T23:39:07.639Z,100878.63
2023-01-22T23:41:34.068Z,100887.44
2023-01-22T23:44:00.990Z,100874.19
2023-01-22T23:46:30.776Z,100879.59
2023-01-22T23:48:59.027Z,100870.81
2023-01-22T23:51:26.956Z,100881.38
2023-01-22T23:53:54.584Z,100869.91
2023-01-22T23:56:23.929Z,100870.75
2023-01-22T23:58:54.788Z,100873.41
